createdAt,value
2018-06-30T00:00:15.010Z,0.00
2018-06-30T00:01:14.783Z,0.00
2018-06-30T00:02:14.760Z,0.00
2018-06-30T00:03:14.735Z,0.00
2018-06-30T00:04:14.714Z,0.00
2018-06-30T00:05:14.690Z,0.00
2018-06-30T00:06:14.662Z,0.00
2018-06-30T00:07:14.840Z,0.00
2018-06-30T00:08:14.613Z,0.00
2018-06-30T00:09:14.589Z,0.00
2018-06-30T00:10:14.568Z,0.00
2018-06-30T00:11:15.393Z,0.00
2018-06-30T00:12:14.519Z,0.00
2018-06-30T00:13:14.700Z,0.00
2018-06-30T00:14:14.673Z,0.00
2018-06-30T00:15:14.445Z,0.00
2018-06-30T00:16:14.420Z,0.00
2018-06-30T00:17:14.396Z,0.00
2018-06-30T00:18:14.377Z,0.00
2018-06-30T00:19:14.351Z,0.00
2018-06-30T00:20:14.324Z,0.00
2018-06-30T00:21:14.301Z,0.00
2018-06-30T00:22:14.278Z,0.00
2018-06-30T00:23:14.255Z,0.00
2018-06-30T00:24:14.231Z,0.00
2018-06-30T00:25:14.205Z,0.00
2018-06-30T00:26:14.181Z,0.00
2018-06-30T00:27:14.156Z,0.00
2018-06-30T00:28:14.334Z,0.00
2018-06-30T00:29:14.112Z,0.00
2018-06-30T00:30:14.088Z,0.00
2018-06-30T00:31:14.062Z,0.00
2018-06-30T00:32:14.037Z,0.00
2018-06-30T00:33:14.014Z,0.00
2018-06-30T00:34:13.991Z,0.00
2018-06-30T00:35:13.964Z,0.00
2018-06-30T00:36:13.940Z,0.00
2018-06-30T00:37:13.924Z,0.00
2018-06-30T00:38:13.907Z,0.00
2018-06-30T00:39:13.866Z,0.00
2018-06-30T00:40:13.844Z,0.00
2018-06-30T00:41:13.816Z,0.00
2018-06-30T00:42:13.795Z,0.00
2018-06-30T00:43:13.774Z,0.00
2018-06-30T00:44:13.748Z,0.00
2018-06-30T00:45:13.927Z,0.00
2018-06-30T00:46:13.700Z,0.00
2018-06-30T00:47:13.977Z,0.00
2018-06-30T00:48:13.649Z,0.00
2018-06-30T00:49:13.623Z,0.00
2018-06-30T00:50:13.599Z,0.00
2018-06-30T00:51:13.576Z,0.00
2018-06-30T00:52:13.767Z,0.00
2018-06-30T00:53:13.531Z,0.00
2018-06-30T00:54:13.505Z,0.00
2018-06-30T00:55:13.485Z,0.00
2018-06-30T00:56:13.657Z,0.00
2018-06-30T00:57:13.633Z,0.00
2018-06-30T00:58:13.405Z,0.00
2018-06-30T00:59:13.381Z,0.00
2018-06-30T01:00:13.354Z,0.00
2018-06-30T01:01:13.332Z,0.00
2018-06-30T01:02:13.311Z,0.00
2018-06-30T01:03:13.285Z,0.00
2018-06-30T01:04:13.260Z,0.00
2018-06-30T01:05:13.235Z,0.00
2018-06-30T01:06:13.209Z,0.00
2018-06-30T01:07:13.390Z,0.00
2018-06-30T01:08:13.363Z,0.00
2018-06-30T01:09:13.138Z,0.00
2018-06-30T01:10:13.317Z,0.00
2018-06-30T01:11:13.291Z,0.00
2018-06-30T01:12:13.065Z,0.00
2018-06-30T01:13:13.041Z,0.00
2018-06-30T01:14:13.015Z,0.00
2018-06-30T01:15:12.990Z,0.00
2018-06-30T01:16:12.965Z,0.00
2018-06-30T01:17:12.941Z,0.00
2018-06-30T01:18:12.919Z,0.00
2018-06-30T01:19:13.097Z,0.00
2018-06-30T01:20:13.070Z,0.00
2018-06-30T01:21:12.845Z,0.00
2018-06-30T01:22:12.821Z,0.00
2018-06-30T01:23:12.804Z,0.00
2018-06-30T01:24:12.774Z,0.00
2018-06-30T01:25:12.747Z,0.00
2018-06-30T01:26:12.721Z,0.00
2018-06-30T01:27:12.696Z,0.00
2018-06-30T01:28:12.670Z,0.00
2018-06-30T01:29:12.647Z,0.00
2018-06-30T01:30:12.623Z,0.00
2018-06-30T01:31:12.602Z,0.00
2018-06-30T01:32:12.578Z,0.00
2018-06-30T01:33:12.550Z,0.00
2018-06-30T01:34:12.524Z,0.00
2018-06-30T01:35:54.857Z,0.00
2018-06-30T01:36:54.628Z,0.00
2018-06-30T01:37:54.603Z,0.00
2018-06-30T01:38:54.580Z,0.00
2018-06-30T01:39:54.553Z,0.00
2018-06-30T01:40:54.532Z,0.00
2018-06-30T01:41:54.502Z,0.00
2018-06-30T01:42:54.682Z,0.00
2018-06-30T01:43:54.477Z,0.00
2018-06-30T01:44:54.430Z,0.00
2018-06-30T01:45:54.405Z,0.00
2018-06-30T01:46:54.379Z,0.00
2018-06-30T01:47:54.355Z,0.00
2018-06-30T01:48:54.328Z,0.00
2018-06-30T01:49:54.305Z,0.00
2018-06-30T01:50:54.284Z,0.00
2018-06-30T01:51:54.255Z,0.00
2018-06-30T01:52:54.230Z,0.00
2018-06-30T01:53:54.204Z,0.00
2018-06-30T01:54:54.190Z,0.00
2018-06-30T01:55:54.167Z,0.00
2018-06-30T01:56:54.338Z,0.00
2018-06-30T01:57:54.109Z,0.00
2018-06-30T01:58:54.288Z,0.00
2018-06-30T01:59:54.058Z,0.00
2018-06-30T02:00:54.033Z,0.00
2018-06-30T02:01:54.010Z,0.00
2018-06-30T02:02:53.985Z,0.00
2018-06-30T02:03:53.959Z,0.00
2018-06-30T02:04:53.934Z,0.00
2018-06-30T02:05:53.910Z,0.00
2018-06-30T02:06:53.884Z,0.00
2018-06-30T02:07:53.867Z,0.00
2018-06-30T02:08:53.838Z,0.00
2018-06-30T02:09:53.812Z,0.00
2018-06-30T02:10:53.786Z,0.00
2018-06-30T02:11:53.759Z,0.00
2018-06-30T02:12:53.734Z,0.00
2018-06-30T02:13:53.711Z,0.00
2018-06-30T02:14:53.686Z,0.00
2018-06-30T02:15:53.662Z,0.00
2018-06-30T02:16:53.638Z,0.00
2018-06-30T02:17:53.611Z,0.00
2018-06-30T02:18:53.595Z,0.00
2018-06-30T02:19:53.560Z,0.00
2018-06-30T02:20:53.536Z,0.00
2018-06-30T02:21:53.511Z,0.00
2018-06-30T02:23:35.841Z,0.00
2018-06-30T02:24:35.614Z,0.00
2018-06-30T02:25:35.591Z,0.00
2018-06-30T02:26:35.565Z,0.00
2018-06-30T02:27:35.538Z,0.00
2018-06-30T02:28:35.512Z,0.00
2018-06-30T02:29:35.488Z,0.00
2018-06-30T02:30:35.463Z,0.00
2018-06-30T02:31:35.441Z,5.63
2018-06-30T02:32:35.420Z,5.63
2018-06-30T02:33:35.389Z,5.63
2018-06-30T02:34:35.366Z,5.63
2018-06-30T02:35:35.340Z,5.63
2018-06-30T02:36:35.316Z,5.63
2018-06-30T02:38:17.644Z,5.63
2018-06-30T02:39:17.420Z,5.63
2018-06-30T02:40:17.391Z,11.25
2018-06-30T02:41:17.369Z,11.25
2018-06-30T02:42:17.339Z,11.25
2018-06-30T02:43:17.319Z,11.25
2018-06-30T02:44:17.289Z,11.25
2018-06-30T02:45:17.267Z,16.88
2018-06-30T02:46:17.241Z,16.88
2018-06-30T02:47:17.220Z,16.88
2018-06-30T02:53:13.052Z,28.13
2018-06-30T02:54:12.219Z,28.13
2018-06-30T02:55:12.395Z,28.13
2018-06-30T02:56:12.162Z,33.75
2018-06-30T02:57:12.339Z,33.75
2018-06-30T02:58:12.112Z,39.38
2018-06-30T02:59:12.085Z,39.38
2018-06-30T03:00:12.061Z,39.38
2018-06-30T03:01:12.090Z,45.00
2018-06-30T03:02:12.213Z,45.00
2018-06-30T03:03:11.991Z,50.63
2018-06-30T03:04:11.959Z,50.63
2018-06-30T03:05:11.935Z,56.25
2018-06-30T03:06:11.908Z,56.25
2018-06-30T03:07:11.884Z,61.88
2018-06-30T03:08:11.856Z,61.88
2018-06-30T03:09:11.833Z,67.50
2018-06-30T03:10:12.014Z,67.50
2018-06-30T03:11:11.785Z,73.13
2018-06-30T03:12:11.761Z,78.75
2018-06-30T03:13:11.732Z,78.75
2018-06-30T03:14:11.711Z,84.38
2018-06-30T03:15:11.685Z,90.00
2018-06-30T03:16:11.656Z,90.00
2018-06-30T03:17:11.664Z,95.63
2018-06-30T03:18:11.613Z,95.63
2018-06-30T03:19:11.581Z,95.63
2018-06-30T03:20:11.559Z,101.25
2018-06-30T03:21:11.532Z,101.25
2018-06-30T03:22:11.507Z,106.88
2018-06-30T03:23:11.483Z,112.50
2018-06-30T03:24:11.456Z,112.50
2018-06-30T03:25:11.433Z,118.13
2018-06-30T03:26:11.410Z,123.75
2018-06-30T03:27:11.381Z,123.75
2018-06-30T03:28:11.355Z,129.38
2018-06-30T03:29:11.329Z,135.00
2018-06-30T03:30:11.310Z,140.63
2018-06-30T03:31:11.283Z,140.63
2018-06-30T03:32:11.258Z,146.25
2018-06-30T03:33:11.236Z,151.88
2018-06-30T03:34:11.207Z,151.88
2018-06-30T03:35:11.182Z,157.50
2018-06-30T03:36:11.156Z,163.13
2018-06-30T03:37:11.132Z,168.75
2018-06-30T03:38:11.110Z,168.75
2018-06-30T03:39:11.079Z,174.38
2018-06-30T03:40:11.055Z,208.13
2018-06-30T03:41:11.029Z,258.75
2018-06-30T03:42:11.004Z,292.50
2018-06-30T03:43:10.977Z,298.13
2018-06-30T03:44:10.957Z,309.38
2018-06-30T03:45:10.936Z,320.63
2018-06-30T03:46:10.922Z,326.25
2018-06-30T03:47:10.882Z,343.13
2018-06-30T03:48:10.858Z,348.75
2018-06-30T03:49:10.830Z,348.75
2018-06-30T03:50:10.804Z,354.38
2018-06-30T03:51:10.780Z,371.25
2018-06-30T03:52:10.758Z,371.25
2018-06-30T03:53:10.939Z,376.88
2018-06-30T03:54:10.909Z,388.13
2018-06-30T03:55:10.688Z,393.75
2018-06-30T03:56:10.660Z,405.00
2018-06-30T03:57:10.638Z,410.63
2018-06-30T03:58:10.811Z,421.88
2018-06-30T03:59:10.787Z,433.13
2018-06-30T04:00:10.563Z,438.75
2018-06-30T04:01:10.539Z,450.00
2018-06-30T04:38:42.563Z,804.38
2018-06-30T04:39:42.336Z,810.00
2018-06-30T04:45:37.578Z,860.63
2018-06-30T04:46:37.352Z,877.50
2018-06-30T04:47:37.326Z,894.38
2018-06-30T04:48:37.305Z,900.00
2018-06-30T04:49:37.279Z,905.63
2018-06-30T04:50:37.254Z,922.50
2018-06-30T04:51:37.239Z,911.25
2018-06-30T04:52:37.213Z,916.88
2018-06-30T04:53:37.395Z,956.25
2018-06-30T04:54:37.168Z,967.50
2018-06-30T04:55:37.145Z,973.13
2018-06-30T04:56:37.324Z,990.00
2018-06-30T04:57:37.139Z,978.75
2018-06-30T04:58:37.077Z,973.13
2018-06-30T04:59:37.069Z,1012.50
2018-06-30T05:00:37.032Z,1012.50
2018-06-30T05:02:19.369Z,1057.50
2018-06-30T05:03:19.147Z,1091.25
2018-06-30T05:04:19.123Z,1113.75
2018-06-30T05:05:19.103Z,1153.13
2018-06-30T05:06:19.279Z,1192.50
2018-06-30T05:07:19.056Z,1209.38
2018-06-30T05:08:19.038Z,1186.88
2018-06-30T05:09:19.015Z,1186.88
2018-06-30T05:10:19.200Z,1186.88
2018-06-30T05:11:19.175Z,1186.88
2018-06-30T05:12:18.955Z,1215.00
2018-06-30T05:13:18.931Z,1215.00
2018-06-30T05:14:18.908Z,1243.13
2018-06-30T05:15:20.088Z,1265.63
2018-06-30T05:16:18.870Z,1282.50
2018-06-30T05:17:18.844Z,1288.13
2018-06-30T05:18:19.026Z,1299.38
2018-06-30T05:19:18.803Z,1271.25
2018-06-30T05:20:18.783Z,1293.75
2018-06-30T05:21:18.786Z,1344.38
2018-06-30T05:22:18.742Z,1338.75
2018-06-30T05:23:18.722Z,1338.75
2018-06-30T05:24:18.701Z,1350.00
2018-06-30T05:25:18.678Z,1406.25
2018-06-30T05:26:18.659Z,1423.13
2018-06-30T05:39:15.457Z,1625.63
2018-06-30T05:40:57.592Z,1676.25
2018-06-30T05:41:57.572Z,1665.00
2018-06-30T05:42:57.547Z,1659.38
2018-06-30T05:43:57.328Z,1710.00
2018-06-30T05:44:57.506Z,1738.13
2018-06-30T05:45:57.283Z,1732.50
2018-06-30T05:46:57.470Z,1771.88
2018-06-30T05:47:57.449Z,1816.88
2018-06-30T05:48:57.429Z,1816.88
2018-06-30T05:49:57.616Z,1800.00
2018-06-30T05:50:57.389Z,1811.25
2018-06-30T05:51:57.369Z,1845.00
2018-06-30T05:52:57.147Z,1873.13
2018-06-30T05:53:57.127Z,1878.75
2018-06-30T05:54:57.108Z,1878.75
2018-06-30T05:55:57.090Z,1890.00
2018-06-30T05:56:57.070Z,1918.13
2018-06-30T05:57:57.050Z,1890.00
2018-06-30T05:58:57.036Z,1906.88
2018-06-30T05:59:57.019Z,1946.25
2018-06-30T06:00:56.995Z,2013.75
2018-06-30T06:01:56.976Z,2019.38
2018-06-30T06:02:57.767Z,1980.00
2018-06-30T06:03:56.940Z,1940.63
2018-06-30T06:04:56.918Z,1946.25
2018-06-30T06:05:57.102Z,1963.13
2018-06-30T06:06:56.881Z,1963.13
2018-06-30T06:07:57.067Z,2041.88
2018-06-30T06:08:57.047Z,2064.38
2018-06-30T06:09:57.086Z,2064.38
2018-06-30T06:10:57.013Z,1951.88
2018-06-30T06:11:56.993Z,1929.38
2018-06-30T06:12:56.777Z,1946.25
2018-06-30T06:13:56.753Z,1918.13
2018-06-30T06:14:56.737Z,1828.13
2018-06-30T06:15:56.739Z,1738.13
2018-06-30T06:16:56.699Z,1726.88
2018-06-30T06:17:56.679Z,1743.75
2018-06-30T06:18:56.867Z,1726.88
2018-06-30T06:19:56.849Z,1670.63
2018-06-30T06:20:56.831Z,1552.50
2018-06-30T06:21:56.611Z,1440.00
2018-06-30T06:22:56.592Z,1361.25
2018-06-30T06:23:56.574Z,1305.00
2018-06-30T06:24:56.759Z,1243.13
2018-06-30T06:25:56.545Z,1170.00
2018-06-30T06:26:56.521Z,1153.13
2018-06-30T06:27:56.507Z,1136.25
2018-06-30T06:28:56.489Z,1125.00
2018-06-30T06:29:56.469Z,1108.13
2018-06-30T06:30:56.654Z,1108.13
2018-06-30T06:31:56.438Z,1141.88
2018-06-30T06:32:56.422Z,1755.00
2018-06-30T06:34:00.445Z,2615.63
2018-06-30T06:34:56.589Z,3060.00
2018-06-30T06:35:56.570Z,2964.38
2018-06-30T06:36:56.354Z,2649.38
2018-06-30T06:37:56.335Z,2480.63
2018-06-30T06:38:56.315Z,2446.88
2018-06-30T06:39:56.304Z,2525.63
2018-06-30T06:40:56.289Z,2621.25
2018-06-30T06:41:56.268Z,2643.75
2018-06-30T06:42:56.252Z,2671.88
2018-06-30T06:43:56.233Z,2626.88
2018-06-30T06:44:56.218Z,2565.00
2018-06-30T06:45:56.232Z,2694.38
2018-06-30T06:46:56.183Z,2733.75
2018-06-30T06:47:56.170Z,2688.75
2018-06-30T06:49:38.513Z,2750.63
2018-06-30T06:50:38.295Z,2694.38
2018-06-30T06:51:38.285Z,2784.38
2018-06-30T06:52:41.287Z,2930.63
2018-06-30T06:53:38.246Z,2919.38
2018-06-30T06:54:38.228Z,2840.63
2018-06-30T06:55:38.213Z,2812.50
2018-06-30T06:56:38.402Z,2806.88
2018-06-30T06:57:38.183Z,2649.38
2018-06-30T06:58:38.176Z,2750.63
2018-06-30T06:59:38.362Z,2784.38
2018-06-30T07:00:38.149Z,2733.75
2018-06-30T07:01:38.383Z,2711.25
2018-06-30T07:02:38.101Z,2716.88
2018-06-30T07:03:38.086Z,2694.38
2018-06-30T07:06:02.591Z,2621.25
2018-06-30T07:07:02.373Z,2638.13
2018-06-30T07:08:02.356Z,2694.38
2018-06-30T07:09:02.346Z,2666.25
2018-06-30T07:10:02.525Z,2688.75
2018-06-30T07:11:02.396Z,2728.13
2018-06-30T07:12:02.497Z,2739.38
2018-06-30T07:13:02.283Z,2784.38
2018-06-30T07:14:02.265Z,2829.38
2018-06-30T07:15:02.258Z,2835.00
2018-06-30T07:16:02.233Z,2739.38
2018-06-30T07:17:02.219Z,2773.13
2018-06-30T07:18:02.401Z,2767.50
2018-06-30T07:19:02.183Z,2863.13
2018-06-30T07:20:02.181Z,2970.00
2018-06-30T07:21:02.155Z,2880.00
2018-06-30T07:22:02.353Z,3009.38
2018-06-30T07:23:02.125Z,2851.88
2018-06-30T07:24:02.111Z,2784.38
2018-06-30T07:25:02.096Z,2958.75
2018-06-30T07:26:02.083Z,2925.00
2018-06-30T07:27:02.070Z,2975.63
2018-06-30T07:28:02.052Z,2936.25
2018-06-30T07:29:02.034Z,2896.88
2018-06-30T07:30:02.264Z,2941.88
2018-06-30T07:31:02.199Z,3172.50
2018-06-30T07:32:02.152Z,3003.75
2018-06-30T07:33:02.123Z,2947.50
2018-06-30T07:34:02.057Z,3065.63
2018-06-30T07:35:02.147Z,2964.38
2018-06-30T07:36:02.134Z,2913.75
2018-06-30T07:37:02.120Z,3020.63
2018-06-30T07:38:01.911Z,3054.38
2018-06-30T07:39:01.887Z,3150.00
2018-06-30T07:40:01.873Z,3110.63
2018-06-30T07:41:01.856Z,3172.50
2018-06-30T07:42:02.043Z,3172.50
2018-06-30T07:43:01.826Z,3099.38
2018-06-30T07:44:01.812Z,3082.50
2018-06-30T07:45:01.804Z,3082.50
2018-06-30T07:46:01.987Z,3133.13
2018-06-30T07:47:01.979Z,3144.38
2018-06-30T07:48:01.956Z,3178.13
2018-06-30T07:49:01.941Z,3060.00
2018-06-30T07:50:01.770Z,2992.50
2018-06-30T07:51:01.924Z,3043.13
2018-06-30T07:52:01.897Z,3301.88
2018-06-30T07:53:01.680Z,3161.25
2018-06-30T07:54:01.869Z,2885.63
2018-06-30T07:55:01.652Z,2795.63
2018-06-30T07:56:02.455Z,2981.25
2018-06-30T08:10:22.849Z,3054.38
2018-06-30T08:11:22.632Z,3065.63
2018-06-30T08:12:22.822Z,3110.63
2018-06-30T08:13:22.601Z,3127.50
2018-06-30T08:14:22.789Z,3155.63
2018-06-30T08:15:26.209Z,3150.00
2018-06-30T08:16:25.995Z,3268.13
2018-06-30T08:17:22.750Z,3256.88
2018-06-30T08:18:22.533Z,3256.88
2018-06-30T08:32:01.593Z,3397.50
2018-06-30T08:33:01.379Z,3476.25
2018-06-30T08:34:01.362Z,3296.25
2018-06-30T08:35:01.349Z,3335.63
2018-06-30T08:37:25.862Z,3335.63
2018-06-30T08:38:25.646Z,3391.88
2018-06-30T08:39:25.632Z,3515.63
2018-06-30T08:40:25.618Z,3459.38
2018-06-30T08:41:25.599Z,3431.25
2018-06-30T08:42:25.588Z,3386.25
2018-06-30T08:43:25.608Z,3465.00
2018-06-30T08:44:25.768Z,3470.63
2018-06-30T08:45:25.753Z,3324.38
2018-06-30T08:46:25.743Z,3285.00
2018-06-30T08:47:25.724Z,3420.00
2018-06-30T08:48:25.711Z,3532.50
2018-06-30T08:50:07.864Z,3543.75
2018-06-30T08:51:07.697Z,3459.38
2018-06-30T08:52:07.633Z,3588.75
2018-06-30T08:53:07.620Z,3538.13
2018-06-30T08:54:07.607Z,3498.75
2018-06-30T08:55:07.594Z,3526.88
2018-06-30T08:56:07.582Z,3594.38
2018-06-30T08:57:07.572Z,3526.88
2018-06-30T08:58:07.560Z,3442.50
2018-06-30T08:59:07.751Z,3712.50
2018-06-30T09:00:07.534Z,3442.50
2018-06-30T09:01:49.887Z,3414.38
2018-06-30T09:02:49.671Z,3521.25
2018-06-30T09:03:49.659Z,3555.00
2018-06-30T09:04:49.647Z,3436.88
2018-06-30T09:05:49.633Z,3633.75
2018-06-30T09:06:49.826Z,3600.00
2018-06-30T09:07:49.609Z,3414.38
2018-06-30T09:08:49.801Z,3892.50
2018-06-30T09:09:49.796Z,3825.00
2018-06-30T09:10:53.612Z,3622.50
2018-06-30T09:11:49.616Z,3594.38
2018-06-30T09:12:49.549Z,3588.75
2018-06-30T09:13:49.538Z,3611.25
2018-06-30T09:14:49.532Z,3583.13
2018-06-30T09:15:49.514Z,3780.00
2018-06-30T09:16:49.504Z,3650.63
2018-06-30T09:17:49.491Z,3768.75
2018-06-30T09:18:49.479Z,3763.13
2018-06-30T09:19:49.471Z,3802.50
2018-06-30T09:20:49.459Z,3954.38
2018-06-30T09:21:49.447Z,3746.25
2018-06-30T09:22:49.434Z,3729.38
2018-06-30T09:23:49.424Z,3673.13
2018-06-30T09:24:49.409Z,3543.75
2018-06-30T09:25:49.401Z,3667.50
2018-06-30T09:26:49.591Z,3847.50
2018-06-30T09:27:49.377Z,3515.63
2018-06-30T09:28:49.368Z,3690.00
2018-06-30T09:29:49.610Z,3864.38
2018-06-30T09:30:49.345Z,3819.38
2018-06-30T09:31:49.334Z,3909.38
2018-06-30T09:32:49.321Z,3740.63
2018-06-30T09:33:49.312Z,3712.50
2018-06-30T09:34:49.302Z,3988.13
2018-06-30T09:35:49.289Z,3870.00
2018-06-30T09:36:49.284Z,3830.63
2018-06-30T09:37:49.280Z,3825.00
2018-06-30T09:38:52.076Z,3948.75
2018-06-30T09:39:49.243Z,3982.50
2018-06-30T09:40:49.236Z,3954.38
2018-06-30T09:41:49.224Z,4038.75
2018-06-30T09:42:49.214Z,3847.50
2018-06-30T09:43:49.203Z,3976.88
2018-06-30T09:44:49.250Z,4196.25
2018-06-30T09:45:49.174Z,4151.25
2018-06-30T09:46:49.161Z,4168.13
2018-06-30T09:47:49.152Z,3937.50
2018-06-30T09:48:49.143Z,3965.63
2018-06-30T09:49:49.131Z,4021.88
2018-06-30T09:50:49.126Z,4010.63
2018-06-30T09:51:49.108Z,3971.25
2018-06-30T09:52:49.308Z,3965.63
2018-06-30T09:53:49.088Z,3920.63
2018-06-30T09:54:49.080Z,4173.75
2018-06-30T09:55:49.068Z,4207.50
2018-06-30T09:56:49.108Z,4201.88
2018-06-30T09:57:49.045Z,4162.50
2018-06-30T09:58:49.032Z,4241.25
2018-06-30T09:59:49.021Z,4370.63
2018-06-30T10:00:49.216Z,4387.50
2018-06-30T10:01:49.002Z,984.38
2018-06-30T10:02:48.991Z,1153.13
2018-06-30T10:03:48.981Z,1158.75
2018-06-30T10:04:48.969Z,1276.88
2018-06-30T10:05:48.956Z,1192.50
2018-06-30T10:06:49.152Z,1867.50
2018-06-30T10:07:48.933Z,4528.13
2018-06-30T10:08:48.922Z,1074.38
2018-06-30T10:09:49.113Z,1035.00
2018-06-30T10:10:49.100Z,1816.88
2018-06-30T10:11:49.088Z,4353.75
2018-06-30T10:12:48.872Z,4134.38
2018-06-30T10:13:48.859Z,1271.25
2018-06-30T10:14:49.047Z,1406.25
2018-06-30T10:15:49.036Z,4590.00
2018-06-30T10:16:49.020Z,4640.63
2018-06-30T10:17:48.806Z,4567.50
2018-06-30T10:18:48.791Z,4623.75
2018-06-30T10:19:48.979Z,4606.88
2018-06-30T10:20:48.799Z,4561.88
2018-06-30T10:21:48.953Z,4685.63
2018-06-30T10:22:48.742Z,4657.50
2018-06-30T10:23:48.724Z,3780.00
2018-06-30T10:24:48.708Z,1276.88
2018-06-30T10:25:48.697Z,4803.75
2018-06-30T10:26:48.835Z,4854.38
2018-06-30T10:27:48.672Z,5023.13
2018-06-30T10:28:48.664Z,1575.00
2018-06-30T10:29:48.650Z,1665.00
2018-06-30T10:30:48.643Z,5006.25
2018-06-30T10:31:48.627Z,1721.25
2018-06-30T10:32:48.613Z,2576.25
2018-06-30T10:33:48.597Z,3881.25
2018-06-30T10:34:48.582Z,1333.13
2018-06-30T10:35:48.571Z,1260.00
2018-06-30T10:36:48.557Z,1254.38
2018-06-30T10:37:48.547Z,1282.50
2018-06-30T10:38:48.734Z,2036.25
2018-06-30T10:39:48.719Z,5208.75
2018-06-30T10:40:48.512Z,4100.63
2018-06-30T10:41:48.494Z,4955.63
2018-06-30T10:42:48.478Z,5017.50
2018-06-30T10:43:48.464Z,5146.88
2018-06-30T10:44:48.449Z,5118.75
2018-06-30T10:45:48.438Z,4955.63
2018-06-30T10:46:48.436Z,5073.75
2018-06-30T10:47:48.414Z,5034.38
2018-06-30T10:48:48.602Z,4753.13
2018-06-30T10:49:48.391Z,5011.88
2018-06-30T10:52:55.064Z,1428.75
2018-06-30T10:53:54.848Z,1783.13
2018-06-30T10:54:54.835Z,4989.38
2018-06-30T10:55:54.823Z,5146.88
2018-06-30T10:56:54.811Z,4871.25
2018-06-30T10:57:54.798Z,4950.00
2018-06-30T10:58:54.786Z,5118.75
2018-06-30T10:59:54.780Z,5214.38
2018-06-30T11:00:54.773Z,1738.13
2018-06-30T11:01:54.755Z,1158.75
2018-06-30T11:02:54.744Z,2553.75
2018-06-30T11:03:54.747Z,1119.38
2018-06-30T11:04:54.716Z,1175.63
2018-06-30T11:05:54.739Z,1203.75
2018-06-30T11:06:55.704Z,1400.63
2018-06-30T11:07:54.885Z,1479.38
2018-06-30T11:08:54.667Z,1260.00
2018-06-30T11:09:54.860Z,1698.75
2018-06-30T11:10:54.675Z,5028.75
2018-06-30T11:11:54.831Z,4944.38
2018-06-30T11:12:54.817Z,4882.50
2018-06-30T11:13:54.803Z,5220.00
2018-06-30T11:14:54.791Z,4944.38
2018-06-30T11:15:54.572Z,4770.00
2018-06-30T11:16:54.763Z,5085.00
2018-06-30T11:17:54.750Z,5366.25
2018-06-30T11:18:57.365Z,5023.13
2018-06-30T11:19:57.351Z,4972.50
2018-06-30T11:20:54.521Z,5079.38
2018-06-30T11:21:54.706Z,5287.50
2018-06-30T11:22:54.490Z,5248.13
2018-06-30T11:23:54.479Z,5163.75
2018-06-30T11:24:54.670Z,3065.63
2018-06-30T11:25:54.659Z,1760.63
2018-06-30T11:26:54.650Z,2688.75
2018-06-30T11:27:54.635Z,1614.38
2018-06-30T11:28:54.624Z,1631.25
2018-06-30T11:29:54.612Z,1710.00
2018-06-30T11:30:54.605Z,1760.63
2018-06-30T11:31:54.392Z,5490.00
2018-06-30T11:32:54.580Z,5304.38
2018-06-30T11:33:54.573Z,5608.13
2018-06-30T11:34:54.554Z,5540.63
2018-06-30T11:36:36.706Z,5563.13
2018-06-30T11:37:36.492Z,5568.75
2018-06-30T11:38:36.480Z,5366.25
2018-06-30T11:39:36.474Z,5625.00
2018-06-30T11:40:36.676Z,5602.50
2018-06-30T11:41:36.668Z,5394.38
2018-06-30T11:42:36.640Z,5580.00
2018-06-30T11:43:39.254Z,5501.25
2018-06-30T11:44:37.433Z,2182.50
2018-06-30T11:45:36.416Z,2587.50
2018-06-30T11:46:36.604Z,1417.50
2018-06-30T11:47:36.394Z,1310.63
2018-06-30T11:48:36.588Z,1282.50
2018-06-30T11:49:36.574Z,1260.00
2018-06-30T11:50:36.566Z,1260.00
2018-06-30T11:51:36.356Z,1237.50
2018-06-30T11:52:36.543Z,1158.75
2018-06-30T11:53:36.530Z,1125.00
2018-06-30T11:54:36.518Z,1175.63
2018-06-30T11:55:36.512Z,2120.63
2018-06-30T11:56:36.496Z,1147.50
2018-06-30T11:57:36.481Z,5023.13
2018-06-30T11:58:36.472Z,3465.00
2018-06-30T11:59:36.260Z,4539.38
2018-06-30T12:00:36.508Z,4758.75
2018-06-30T12:01:36.426Z,4786.88
2018-06-30T12:02:36.415Z,4888.13
2018-06-30T12:03:36.510Z,5394.38
2018-06-30T12:04:36.398Z,5411.25
2018-06-30T12:05:36.375Z,5017.50
2018-06-30T12:06:36.364Z,5130.00
2018-06-30T12:07:36.351Z,5208.75
2018-06-30T12:08:36.344Z,5236.88
2018-06-30T12:09:36.128Z,5281.88
2018-06-30T12:10:36.114Z,5265.00
2018-06-30T12:11:36.303Z,1468.13
2018-06-30T12:12:36.090Z,1445.63
2018-06-30T12:13:36.080Z,1434.38
2018-06-30T12:14:36.067Z,1473.75
2018-06-30T12:15:36.060Z,5028.75
2018-06-30T12:16:36.048Z,4275.00
2018-06-30T12:17:36.036Z,5006.25
2018-06-30T12:18:36.022Z,5090.63
2018-06-30T12:19:36.009Z,4995.00
2018-06-30T12:20:35.997Z,4950.00
2018-06-30T12:21:35.985Z,4899.38
2018-06-30T12:22:35.980Z,5051.25
2018-06-30T12:23:36.166Z,4944.38
2018-06-30T12:24:36.159Z,4775.63
2018-06-30T12:25:35.944Z,4860.00
2018-06-30T12:26:35.934Z,4944.38
2018-06-30T12:28:18.288Z,5248.13
2018-06-30T12:29:18.278Z,5118.75
2018-06-30T12:30:18.126Z,4961.25
2018-06-30T12:31:18.261Z,5214.38
2018-06-30T12:32:18.311Z,5236.88
2018-06-30T12:33:18.035Z,5146.88
2018-06-30T12:34:18.233Z,1383.75
2018-06-30T12:35:18.019Z,1231.88
2018-06-30T12:36:18.212Z,1192.50
2018-06-30T12:37:18.202Z,1192.50
2018-06-30T12:38:18.191Z,3481.88
2018-06-30T12:39:18.181Z,1288.13
2018-06-30T12:40:18.172Z,5135.63
2018-06-30T12:41:17.959Z,4933.13
2018-06-30T12:42:17.955Z,4803.75
2018-06-30T12:43:17.935Z,4860.00
2018-06-30T12:44:17.924Z,4972.50
2018-06-30T12:45:17.913Z,5017.50
2018-06-30T12:46:17.904Z,4798.13
2018-06-30T12:47:17.895Z,4865.63
2018-06-30T12:48:17.888Z,5034.38
2018-06-30T12:49:17.871Z,5096.25
2018-06-30T12:50:17.863Z,5130.00
2018-06-30T12:51:17.850Z,5349.38
2018-06-30T12:52:17.846Z,5360.63
2018-06-30T12:53:17.832Z,2452.50
2018-06-30T12:54:17.878Z,2553.75
2018-06-30T12:56:00.179Z,2452.50
2018-06-30T12:56:59.967Z,1816.88
2018-06-30T12:57:59.961Z,1726.88
2018-06-30T12:58:59.945Z,2705.63
2018-06-30T13:00:00.137Z,1715.63
2018-06-30T13:00:59.926Z,1479.38
2018-06-30T13:02:00.116Z,1423.13
2018-06-30T13:03:00.107Z,1648.13
2018-06-30T13:04:00.100Z,1288.13
2018-06-30T13:05:00.084Z,4702.50
2018-06-30T13:06:00.071Z,4606.88
2018-06-30T13:07:00.866Z,4556.25
2018-06-30T13:08:00.049Z,4606.88
2018-06-30T13:08:59.829Z,4612.50
2018-06-30T13:10:00.025Z,4691.25
2018-06-30T13:11:00.010Z,4117.50
2018-06-30T13:11:59.795Z,2469.38
2018-06-30T13:12:59.792Z,4674.38
2018-06-30T13:13:59.770Z,4809.38
2018-06-30T13:14:59.761Z,4702.50
2018-06-30T13:15:59.952Z,4629.38
2018-06-30T13:16:59.940Z,1192.50
2018-06-30T13:17:59.733Z,1113.75
2018-06-30T13:18:59.713Z,4370.63
2018-06-30T13:20:42.073Z,4432.50
2018-06-30T13:21:41.853Z,4275.00
2018-06-30T13:22:41.842Z,4511.25
2018-06-30T13:23:41.832Z,4680.00
2018-06-30T13:24:41.817Z,4786.88
2018-06-30T13:25:41.805Z,4989.38
2018-06-30T13:26:41.794Z,4871.25
2018-06-30T13:27:41.784Z,1586.25
2018-06-30T13:28:41.815Z,1631.25
2018-06-30T13:29:41.769Z,4792.50
2018-06-30T13:30:41.757Z,4905.00
2018-06-30T13:31:41.740Z,5236.88
2018-06-30T13:32:41.731Z,2227.50
2018-06-30T13:33:41.732Z,1591.88
2018-06-30T13:34:41.716Z,1496.25
2018-06-30T13:35:41.696Z,1316.25
2018-06-30T13:37:41.673Z,1125.00
2018-06-30T13:38:41.661Z,4550.63
2018-06-30T13:39:41.649Z,4629.38
2018-06-30T13:40:41.690Z,4246.88
2018-06-30T13:41:41.626Z,4269.38
2018-06-30T13:42:41.627Z,4320.00
2018-06-30T13:43:41.673Z,4381.88
2018-06-30T13:44:41.596Z,4348.13
2018-06-30T13:45:41.575Z,4275.00
2018-06-30T13:46:41.563Z,4393.13
2018-06-30T13:47:41.556Z,4471.88
2018-06-30T13:48:41.543Z,4505.63
2018-06-30T13:49:41.531Z,4646.25
2018-06-30T13:50:41.519Z,4893.75
2018-06-30T13:51:41.508Z,4972.50
2018-06-30T13:52:41.512Z,4685.63
2018-06-30T13:53:41.690Z,4623.75
2018-06-30T13:54:41.475Z,4702.50
2018-06-30T13:55:41.471Z,4663.13
2018-06-30T13:56:41.453Z,3138.75
2018-06-30T13:57:41.443Z,3566.25
2018-06-30T13:58:41.435Z,1355.63
2018-06-30T13:59:41.422Z,1496.25
2018-06-30T14:00:41.416Z,1350.00
2018-06-30T14:01:41.403Z,1293.75
2018-06-30T14:02:41.392Z,1299.38